createdAt,value
2022-07-28T00:00:13.151Z,101386.19
2022-07-28T00:02:40.259Z,101387.19
2022-07-28T00:10:55.688Z,101388.56
2022-07-28T00:13:22.864Z,101388.97
2022-07-28T00:15:50.081Z,101392.06
2022-07-28T00:18:17.205Z,101393.19
2022-07-28T00:20:44.316Z,101390.31
2022-07-28T00:23:11.318Z,101395.53
2022-07-28T00:25:38.565Z,101388.16
2022-07-28T00:28:05.839Z,101392.69
2022-07-28T00:30:32.908Z,101394.44
2022-07-28T00:33:00.272Z,101391.56
2022-07-28T00:35:30.882Z,101390.53
2022-07-28T00:38:00.249Z,101392.06
2022-07-28T00:40:48.028Z,101386.69
2022-07-28T00:43:16.475Z,101395.16
2022-07-28T00:45:43.760Z,101394.13
2022-07-28T00:48:10.808Z,101392.16
2022-07-28T00:50:40.913Z,101391.66
2022-07-28T00:53:08.936Z,101395.97
2022-07-28T00:56:05.323Z,101387.72
2022-07-28T00:58:28.370Z,101394.00
2022-07-28T01:00:57.263Z,101393.19
2022-07-28T01:03:26.986Z,101392.34
2022-07-28T01:06:24.431Z,101394.91
2022-07-28T01:09:41.159Z,101398.69
2022-07-28T01:12:26.410Z,101392.84
2022-07-28T01:15:25.342Z,101389.03
2022-07-28T01:18:17.734Z,101395.22
2022-07-28T01:21:24.076Z,101394.06
2022-07-28T01:24:22.547Z,101390.69
2022-07-28T01:27:59.910Z,101388.91
2022-07-28T01:30:44.213Z,101393.88
2022-07-28T01:33:36.860Z,101394.09
2022-07-28T01:36:15.250Z,101400.59
2022-07-28T01:38:47.598Z,101391.34
2022-07-28T01:41:25.485Z,101392.25
2022-07-28T01:44:04.969Z,101397.19
2022-07-28T01:46:37.434Z,101392.25
2022-07-28T01:49:09.982Z,101398.00
2022-07-28T01:51:40.096Z,101389.69
2022-07-28T01:54:12.418Z,101384.47
2022-07-28T01:56:44.293Z,101383.63
2022-07-28T01:59:14.521Z,101390.00
2022-07-28T02:01:50.970Z,101384.75
2022-07-28T02:04:23.855Z,101392.53
2022-07-28T02:06:55.804Z,101390.88
2022-07-28T02:09:26.369Z,101391.13
2022-07-28T02:11:57.325Z,101391.94
2022-07-28T02:14:29.737Z,101389.53
2022-07-28T02:17:08.082Z,101388.75
2022-07-28T02:19:40.675Z,101393.25
2022-07-28T02:22:10.927Z,101384.94
2022-07-28T02:24:41.969Z,101386.81
2022-07-28T02:27:23.802Z,101386.50
2022-07-28T02:30:12.599Z,101394.00
2022-07-28T02:33:15.555Z,101395.13
2022-07-28T02:36:02.015Z,101392.34
2022-07-28T02:38:40.326Z,101394.91
2022-07-28T02:41:26.476Z,101391.00
2022-07-28T02:44:03.557Z,101390.78
2022-07-28T02:46:43.465Z,101395.50
2022-07-28T02:49:24.965Z,101394.69
2022-07-28T02:51:56.601Z,101403.38
2022-07-28T02:54:27.902Z,101392.31
2022-07-28T02:57:00.171Z,101407.25
2022-07-28T02:59:30.368Z,101406.00
2022-07-28T03:01:59.585Z,101409.59
2022-07-28T03:04:48.142Z,101406.22
2022-07-28T03:07:16.971Z,101407.06
2022-07-28T03:09:48.934Z,101421.78
2022-07-28T03:12:16.861Z,101415.50
2022-07-28T03:14:43.962Z,101421.34
2022-07-28T03:17:11.244Z,101420.38
2022-07-28T03:19:38.635Z,101418.06
2022-07-28T03:22:06.445Z,101431.53
2022-07-28T03:24:45.105Z,101426.88
2022-07-28T03:27:31.229Z,101433.81
2022-07-28T03:30:15.357Z,101435.94
2022-07-28T03:32:54.597Z,101433.16
2022-07-28T03:35:22.586Z,101435.03
2022-07-28T03:38:08.176Z,101438.84
2022-07-28T03:40:39.258Z,101437.66
2022-07-28T03:43:10.943Z,101438.53
2022-07-28T03:45:41.010Z,101431.34
2022-07-28T03:48:09.129Z,101441.84
2022-07-28T03:50:36.140Z,101435.97
2022-07-28T03:53:03.342Z,101443.63
2022-07-28T03:55:31.011Z,101449.13
2022-07-28T03:57:58.212Z,101455.41
2022-07-28T04:00:26.037Z,101450.91
2022-07-28T04:02:53.293Z,101447.97
2022-07-28T04:05:20.855Z,101453.81
2022-07-28T04:07:48.292Z,101456.06
2022-07-28T04:10:18.056Z,101451.81
2022-07-28T04:12:56.737Z,101453.09
2022-07-28T04:15:27.773Z,101459.84
2022-07-28T04:17:56.848Z,101458.03
2022-07-28T04:20:28.417Z,101450.47
2022-07-28T04:22:56.405Z,101456.53
2022-07-28T04:25:27.398Z,101455.03
2022-07-28T04:27:56.258Z,101458.16
2022-07-28T04:30:25.411Z,101449.75
2022-07-28T04:32:56.182Z,101456.44
2022-07-28T04:35:28.381Z,101456.84
2022-07-28T04:37:58.495Z,101453.88
2022-07-28T04:40:26.939Z,101458.75
2022-07-28T04:42:56.087Z,101456.41
2022-07-28T04:45:23.335Z,101455.94
2022-07-28T04:47:51.826Z,101466.00
2022-07-28T04:50:21.407Z,101467.75
2022-07-28T04:52:51.540Z,101463.09
2022-07-28T04:55:18.848Z,101464.03
2022-07-28T04:57:48.255Z,101461.16
2022-07-28T05:00:16.118Z,101464.56
2022-07-28T05:02:45.877Z,101461.72
2022-07-28T05:05:13.587Z,101460.19
2022-07-28T05:07:42.133Z,101470.91
2022-07-28T05:10:12.877Z,101465.03
2022-07-28T05:12:40.388Z,101464.69
2022-07-28T05:15:09.667Z,101465.91
2022-07-28T05:17:39.966Z,101464.13
2022-07-28T05:20:08.827Z,101466.03
2022-07-28T05:22:50.990Z,101465.06
2022-07-28T05:25:21.923Z,101470.38
2022-07-28T05:27:50.947Z,101473.34
2022-07-28T05:30:19.488Z,101472.69
2022-07-28T05:32:47.963Z,101470.22
2022-07-28T05:35:15.846Z,101475.88
2022-07-28T05:37:44.048Z,101474.84
2022-07-28T05:40:16.372Z,101474.41
2022-07-28T05:42:47.509Z,101479.66
2022-07-28T05:45:16.885Z,101470.34
2022-07-28T05:47:47.944Z,101476.75
2022-07-28T05:50:18.135Z,101482.13
2022-07-28T05:52:47.886Z,101486.97
2022-07-28T05:55:16.338Z,101489.78
2022-07-28T05:57:44.156Z,101488.38
2022-07-28T06:00:18.414Z,101485.69
2022-07-28T06:02:49.253Z,101489.47
2022-07-28T06:05:20.470Z,101486.69
2022-07-28T06:07:50.712Z,101492.66
2022-07-28T06:10:25.047Z,101477.84
2022-07-28T06:12:56.407Z,101483.84
2022-07-28T06:15:28.213Z,101486.78
2022-07-28T06:17:55.998Z,101497.75
2022-07-28T06:20:27.825Z,101498.22
2022-07-28T06:22:56.107Z,101488.78
2022-07-28T06:25:28.619Z,101500.25
2022-07-28T06:28:04.791Z,101496.59
2022-07-28T06:30:32.538Z,101485.28
2022-07-28T06:32:59.917Z,101497.72
2022-07-28T06:35:27.453Z,101491.72
2022-07-28T06:37:55.054Z,101490.19
2022-07-28T06:40:22.489Z,101490.94
2022-07-28T06:42:50.177Z,101490.50
2022-07-28T06:45:21.221Z,101489.09
2022-07-28T06:47:53.805Z,101488.59
2022-07-28T06:50:24.875Z,101486.59
2022-07-28T06:52:56.680Z,101486.06
2022-07-28T06:55:24.416Z,101493.63
2022-07-28T06:57:51.843Z,101477.03
2022-07-28T07:00:19.281Z,101490.91
2022-07-28T07:02:46.362Z,101489.41
2022-07-28T07:05:14.177Z,101487.53
2022-07-28T07:07:43.540Z,101490.28
2022-07-28T07:10:12.487Z,101484.66
2022-07-28T07:12:39.870Z,101483.06
2022-07-28T07:15:08.418Z,101479.34
2022-07-28T07:17:37.564Z,101486.59
2022-07-28T07:20:07.764Z,101481.75
2022-07-28T07:22:42.231Z,101480.78
2022-07-28T07:25:19.168Z,101487.41
2022-07-28T07:27:47.714Z,101476.88
2022-07-28T07:30:17.407Z,101480.22
2022-07-28T07:32:44.933Z,101480.50
2022-07-28T07:35:12.617Z,101482.03
2022-07-28T07:37:40.672Z,101480.94
2022-07-28T07:40:09.474Z,101481.25
2022-07-28T07:42:37.186Z,101483.59
2022-07-28T07:45:05.185Z,101483.47
2022-07-28T07:47:32.247Z,101488.34
2022-07-28T07:50:03.962Z,101485.06
2022-07-28T07:52:32.332Z,101487.44
2022-07-28T07:54:59.316Z,101488.84
2022-07-28T07:57:26.349Z,101490.69
2022-07-28T07:59:53.400Z,101499.16
2022-07-28T08:02:20.448Z,101499.25
2022-07-28T08:04:47.758Z,101485.81
2022-07-28T08:07:15.401Z,101487.06
2022-07-28T08:09:42.394Z,101485.41
2022-07-28T08:12:16.902Z,101495.03
2022-07-28T08:14:51.563Z,101484.22
2022-07-28T08:17:22.249Z,101490.75
2022-07-28T08:19:52.975Z,101485.91
2022-07-28T08:22:20.055Z,101491.00
2022-07-28T08:24:47.150Z,101482.47
2022-07-28T08:27:14.157Z,101486.25
2022-07-28T08:29:41.390Z,101499.94
2022-07-28T08:32:08.527Z,101485.81
2022-07-28T08:34:36.413Z,101495.72
2022-07-28T08:37:06.306Z,101497.28
2022-07-28T08:39:36.392Z,101501.97
2022-07-28T08:42:16.437Z,101499.84
2022-07-28T08:45:03.161Z,101500.28
2022-07-28T08:47:45.969Z,101495.88
2022-07-28T08:50:24.672Z,101499.50
2022-07-28T08:52:54.110Z,101494.66
2022-07-28T08:55:32.127Z,101493.59
2022-07-28T08:58:01.667Z,101503.63
2022-07-28T09:00:29.632Z,101497.59
2022-07-28T09:02:57.944Z,101493.06
2022-07-28T09:05:27.509Z,101491.19
2022-07-28T09:07:56.025Z,101497.72
2022-07-28T09:10:24.138Z,101499.56
2022-07-28T09:12:52.098Z,101504.72
2022-07-28T09:15:19.303Z,101495.22
2022-07-28T09:17:46.450Z,101491.22
2022-07-28T09:20:14.154Z,101492.25
2022-07-28T09:23:04.879Z,101493.66
2022-07-28T09:26:10.811Z,101485.44
2022-07-28T09:28:58.215Z,101497.88
2022-07-28T09:31:30.720Z,101503.59
2022-07-28T09:34:05.217Z,101495.31
2022-07-28T09:36:41.652Z,101491.50
2022-07-28T09:39:09.749Z,101497.53
2022-07-28T09:41:57.821Z,101492.69
2022-07-28T09:44:27.623Z,101486.41
2022-07-28T09:46:56.729Z,101498.31
2022-07-28T09:49:44.491Z,101493.25
2022-07-28T09:52:12.099Z,101492.09
2022-07-28T09:54:41.248Z,101495.97
2022-07-28T09:57:11.855Z,101486.97
2022-07-28T09:59:50.513Z,101482.06
2022-07-28T10:02:34.326Z,101481.50
2022-07-28T10:05:04.240Z,101482.34
2022-07-28T10:07:31.432Z,101482.78
2022-07-28T10:10:08.030Z,101484.94
2022-07-28T10:12:39.309Z,101478.94
2022-07-28T10:15:36.697Z,101475.91
2022-07-28T10:18:06.455Z,101471.06
2022-07-28T10:20:34.509Z,101471.97
2022-07-28T10:23:11.594Z,101472.59
2022-07-28T10:25:44.410Z,101462.06
2022-07-28T10:28:22.978Z,101465.63
2022-07-28T10:31:00.468Z,101469.63
2022-07-28T10:33:32.932Z,101474.88
2022-07-28T10:36:02.659Z,101470.19
2022-07-28T10:38:37.116Z,101467.53
2022-07-28T10:41:09.738Z,101467.19
2022-07-28T10:43:42.794Z,101458.66
2022-07-28T10:46:16.655Z,101453.28
2022-07-28T10:48:44.976Z,101461.44
2022-07-28T10:51:13.944Z,101459.41
2022-07-28T10:54:07.282Z,101457.72
2022-07-28T10:57:05.185Z,101464.31
2022-07-28T11:00:25.949Z,101448.97
2022-07-28T11:03:00.834Z,101456.16
2022-07-28T11:05:40.896Z,101451.88
2022-07-28T11:08:17.058Z,101460.59
2022-07-28T11:10:58.873Z,101452.97
2022-07-28T11:13:37.094Z,101451.16
2022-07-28T11:16:14.696Z,101447.03
2022-07-28T11:19:36.639Z,101446.22
2022-07-28T11:22:18.634Z,101445.75
2022-07-28T11:24:57.981Z,101447.31
2022-07-28T11:27:40.925Z,101445.09
2022-07-28T11:30:35.961Z,101448.00
2022-07-28T11:33:11.533Z,101444.34
2022-07-28T11:35:41.147Z,101434.31
2022-07-28T11:38:13.168Z,101444.09
2022-07-28T11:40:48.107Z,101440.56
2022-07-28T11:43:28.611Z,101428.94
2022-07-28T11:46:09.667Z,101425.31
2022-07-28T11:48:47.037Z,101423.19
2022-07-28T11:51:15.946Z,101422.44
2022-07-28T11:53:55.668Z,101423.69
2022-07-28T11:56:31.796Z,101425.66
2022-07-28T11:59:06.446Z,101427.09
2022-07-28T12:01:36.794Z,101424.38
2022-07-28T12:04:13.397Z,101425.91
2022-07-28T12:06:43.644Z,101427.69
2022-07-28T12:09:21.852Z,101416.28
2022-07-28T12:11:54.795Z,101423.22
2022-07-28T12:14:23.280Z,101419.31
2022-07-28T12:16:52.319Z,101403.31
2022-07-28T12:19:22.091Z,101412.72
2022-07-28T12:21:55.373Z,101414.00
2022-07-28T12:24:45.611Z,101406.31
2022-07-28T12:27:16.576Z,101406.59
2022-07-28T12:29:47.846Z,101407.38
2022-07-28T12:32:17.619Z,101411.13
2022-07-28T12:34:45.804Z,101399.53
2022-07-28T12:37:14.668Z,101400.81
2022-07-28T12:39:44.309Z,101397.25
2022-07-28T12:42:16.006Z,101395.38
2022-07-28T12:44:48.720Z,101400.09
2022-07-28T12:47:28.128Z,101393.78
2022-07-28T12:50:20.119Z,101392.25
2022-07-28T12:53:12.238Z,101387.84
2022-07-28T12:55:45.994Z,101383.81
2022-07-28T12:58:28.963Z,101390.34
2022-07-28T13:00:56.536Z,101387.19
2022-07-28T13:03:30.107Z,101380.97
2022-07-28T13:06:10.083Z,101379.38
2022-07-28T13:08:47.289Z,101382.91
2022-07-28T13:11:42.405Z,101376.84
2022-07-28T13:14:04.304Z,101382.28
2022-07-28T13:16:31.917Z,101387.97
2022-07-28T13:19:04.625Z,101378.19
2022-07-28T13:21:57.399Z,101376.13
2022-07-28T13:24:30.543Z,101370.97
2022-07-28T13:26:59.480Z,101374.66
2022-07-28T13:29:26.553Z,101367.81
2022-07-28T13:31:55.072Z,101361.59
2022-07-28T13:34:22.525Z,101363.03
2022-07-28T13:36:49.621Z,101358.94
2022-07-28T13:39:16.713Z,101357.66
2022-07-28T13:41:56.583Z,101361.19
2022-07-28T13:44:28.881Z,101356.09
2022-07-28T13:47:00.157Z,101356.69
2022-07-28T13:49:31.849Z,101357.13
2022-07-28T13:52:02.393Z,101351.31
2022-07-28T13:54:29.683Z,101352.28
2022-07-28T13:57:14.139Z,101353.44
2022-07-28T13:59:44.069Z,101352.25
2022-07-28T14:02:20.069Z,101350.34
2022-07-28T14:04:50.677Z,101345.53
2022-07-28T14:07:20.580Z,101345.97
2022-07-28T14:09:50.826Z,101342.72
2022-07-28T14:12:19.286Z,101341.47
2022-07-28T14:14:48.376Z,101342.31
2022-07-28T14:20:11.924Z,101341.47
2022-07-28T14:22:39.154Z,101332.06
2022-07-28T14:25:07.247Z,101323.09
2022-07-28T14:27:34.783Z,101320.84
2022-07-28T14:30:03.875Z,101315.84
2022-07-28T14:32:33.707Z,101309.44
2022-07-28T14:35:02.291Z,101310.41
2022-07-28T14:37:33.230Z,101302.13
2022-07-28T14:40:09.512Z,101315.03
2022-07-28T14:42:36.696Z,101301.59
2022-07-28T14:45:05.735Z,101304.22
2022-07-28T14:47:44.635Z,101304.50
2022-07-28T14:50:13.493Z,101305.16
2022-07-28T14:52:40.750Z,101301.91
2022-07-28T14:55:12.011Z,101303.63
2022-07-28T14:57:51.727Z,101289.25
2022-07-28T15:00:22.384Z,101304.31
2022-07-28T15:02:51.619Z,101291.88
2022-07-28T15:05:20.853Z,101296.19
2022-07-28T15:07:52.122Z,101294.28
2022-07-28T15:10:20.737Z,101291.13
2022-07-28T15:12:48.443Z,101300.00
2022-07-28T15:15:17.091Z,101288.66
2022-07-28T15:17:44.156Z,101290.25
2022-07-28T15:20:11.828Z,101291.28
2022-07-28T15:22:38.948Z,101296.50
2022-07-28T15:25:06.757Z,101296.16
2022-07-28T15:27:34.201Z,101290.38
2022-07-28T15:30:02.836Z,101284.22
2022-07-28T15:32:31.857Z,101295.81
2022-07-28T15:34:59.811Z,101286.44
2022-07-28T15:37:28.117Z,101281.44
2022-07-28T15:39:55.243Z,101289.72
2022-07-28T15:42:23.114Z,101292.88
2022-07-28T15:44:51.812Z,101289.63
2022-07-28T15:47:18.884Z,101286.31
2022-07-28T15:49:45.954Z,101287.94
2022-07-28T15:52:14.636Z,101279.75
2022-07-28T15:54:42.279Z,101283.19
2022-07-28T15:57:09.575Z,101280.03
2022-07-28T15:59:48.695Z,101275.75
2022-07-28T16:02:18.619Z,101278.09
2022-07-28T16:04:52.214Z,101271.19
2022-07-28T16:07:24.547Z,101272.53
2022-07-28T16:09:55.727Z,101267.00
2022-07-28T16:12:26.565Z,101270.59
2022-07-28T16:14:54.214Z,101266.06
2022-07-28T16:17:23.354Z,101267.56
2022-07-28T16:19:52.027Z,101266.06
2022-07-28T16:22:20.651Z,101264.19
2022-07-28T16:24:48.442Z,101267.16
2022-07-28T16:27:15.820Z,101272.31
2022-07-28T16:29:44.888Z,101273.47
2022-07-28T16:32:13.001Z,101260.22
2022-07-28T16:34:40.128Z,101271.44
2022-07-28T16:37:07.682Z,101271.31
2022-07-28T16:39:35.204Z,101272.19
2022-07-28T16:42:03.083Z,101271.69
2022-07-28T16:44:31.202Z,101274.00
2022-07-28T16:46:59.066Z,101272.63
2022-07-28T16:49:26.183Z,101275.06
2022-07-28T16:51:54.769Z,101274.47
2022-07-28T16:54:22.870Z,101282.72
2022-07-28T16:56:51.114Z,101265.16
2022-07-28T16:59:18.184Z,101267.22
2022-07-28T17:01:46.583Z,101260.44
2022-07-28T17:04:18.647Z,101263.31
2022-07-28T17:06:47.726Z,101270.59
2022-07-28T17:09:15.981Z,101269.38
2022-07-28T17:11:44.023Z,101267.31
2022-07-28T17:14:12.806Z,101272.16
2022-07-28T17:16:40.160Z,101276.16
2022-07-28T17:19:07.199Z,101275.00
2022-07-28T17:21:35.964Z,101277.03
2022-07-28T17:24:03.759Z,101274.66
2022-07-28T17:29:19.176Z,101277.06
2022-07-28T17:31:46.368Z,101274.97
2022-07-28T17:34:14.395Z,101281.53
2022-07-28T17:36:42.071Z,101279.88
2022-07-28T17:39:09.480Z,101283.09
2022-07-28T17:41:36.689Z,101289.47
2022-07-28T17:44:04.238Z,101283.78
2022-07-28T17:46:32.226Z,101279.72
2022-07-28T17:49:02.453Z,101275.25
2022-07-28T17:51:30.865Z,101281.69
2022-07-28T17:53:58.131Z,101280.75
2022-07-28T17:56:25.422Z,101270.50
2022-07-28T17:58:53.538Z,101273.38
2022-07-28T18:01:20.669Z,101272.94
2022-07-28T18:03:57.998Z,101279.75
2022-07-28T18:06:34.690Z,101273.59
2022-07-28T18:09:10.660Z,101274.28
2022-07-28T18:11:56.641Z,101266.38
2022-07-28T18:14:29.434Z,101272.72
2022-07-28T18:16:58.015Z,101278.75
2022-07-28T18:19:28.401Z,101270.63
2022-07-28T18:21:56.450Z,101279.00
2022-07-28T18:24:23.834Z,101275.22
2022-07-28T18:26:54.968Z,101282.41
2022-07-28T18:29:22.493Z,101284.69
2022-07-28T18:31:52.139Z,101272.84
2022-07-28T18:36:53.200Z,101270.56
2022-07-28T18:39:20.845Z,101276.47
2022-07-28T18:41:48.188Z,101273.06
2022-07-28T18:44:18.137Z,101273.72
2022-07-28T18:46:46.110Z,101275.13
2022-07-28T18:49:14.053Z,101270.16
2022-07-28T18:51:44.265Z,101267.22
2022-07-28T18:54:18.761Z,101276.31
2022-07-28T18:56:49.502Z,101272.13
2022-07-28T18:59:17.673Z,101273.47
2022-07-28T19:01:45.047Z,101269.69
2022-07-28T19:04:12.549Z,101277.13
2022-07-28T19:06:39.999Z,101282.19
2022-07-28T19:09:07.088Z,101285.25
2022-07-28T19:11:34.279Z,101280.63
2022-07-28T19:14:01.784Z,101294.75
2022-07-28T19:16:28.945Z,101287.50
2022-07-28T19:18:56.048Z,101292.97
2022-07-28T19:21:24.416Z,101295.25
2022-07-28T19:23:53.016Z,101292.59
2022-07-28T19:26:20.437Z,101292.25
2022-07-28T19:28:47.580Z,101291.66
2022-07-28T19:31:14.623Z,101291.84
2022-07-28T19:33:44.156Z,101289.31
2022-07-28T19:36:15.555Z,101284.44
2022-07-28T19:38:44.154Z,101287.88
2022-07-28T19:41:15.651Z,101286.09
2022-07-28T19:43:42.884Z,101283.34
2022-07-28T19:46:10.934Z,101285.16
2022-07-28T19:48:38.744Z,101290.22
2022-07-28T19:51:06.571Z,101287.72
2022-07-28T19:53:35.879Z,101298.50
2022-07-28T19:56:08.938Z,101297.94
2022-07-28T19:58:36.974Z,101295.31
2022-07-28T20:01:06.460Z,101303.66
2022-07-28T20:04:00.879Z,101300.38
2022-07-28T20:06:24.660Z,101305.53
2022-07-28T20:08:54.242Z,101307.06
2022-07-28T20:11:21.477Z,101310.94
2022-07-28T20:13:49.575Z,101307.59
2022-07-28T20:16:17.656Z,101316.38
2022-07-28T20:18:45.111Z,101312.75
2022-07-28T20:21:12.238Z,101314.72
2022-07-28T20:23:40.993Z,101320.16
2022-07-28T20:26:09.809Z,101314.09
2022-07-28T20:28:40.716Z,101320.66
2022-07-28T20:31:09.625Z,101321.03
2022-07-28T20:33:38.496Z,101316.59
2022-07-28T20:36:06.008Z,101325.38
2022-07-28T20:38:33.025Z,101328.16
2022-07-28T20:41:00.014Z,101330.06
2022-07-28T20:43:36.454Z,101339.19
2022-07-28T20:46:08.077Z,101329.50
2022-07-28T20:48:35.933Z,101333.81
2022-07-28T20:51:03.061Z,101335.22
2022-07-28T20:53:30.139Z,101332.22
2022-07-28T20:55:57.405Z,101331.63
2022-07-28T20:58:24.534Z,101332.81
2022-07-28T21:00:52.057Z,101326.28
2022-07-28T21:03:19.769Z,101328.28
2022-07-28T21:05:46.807Z,101324.19
2022-07-28T21:08:16.386Z,101329.34
2022-07-28T21:10:46.163Z,101332.50
2022-07-28T21:13:13.522Z,101329.56
2022-07-28T21:15:40.905Z,101334.25
2022-07-28T21:18:08.174Z,101336.38
2022-07-28T21:20:35.457Z,101334.84
2022-07-28T21:23:03.721Z,101339.63
2022-07-28T21:25:32.379Z,101339.72
2022-07-28T21:28:18.420Z,101341.97
2022-07-28T21:30:46.253Z,101346.97
2022-07-28T21:33:13.938Z,101346.03
2022-07-28T21:35:50.598Z,101352.94
2022-07-28T21:38:17.822Z,101345.00
2022-07-28T21:40:44.868Z,101349.69
2022-07-28T21:43:11.985Z,101349.94
2022-07-28T21:45:39.451Z,101342.22
2022-07-28T21:48:06.887Z,101351.34
2022-07-28T21:50:37.339Z,101351.69
2022-07-28T21:53:04.728Z,101346.31
2022-07-28T21:55:31.705Z,101354.13
2022-07-28T21:57:58.696Z,101357.75
2022-07-28T22:00:26.045Z,101356.00
2022-07-28T22:02:53.716Z,101352.06
2022-07-28T22:05:21.040Z,101354.72
2022-07-28T22:07:49.139Z,101353.09
2022-07-28T22:10:17.563Z,101355.31
2022-07-28T22:12:46.551Z,101355.53
2022-07-28T22:15:13.820Z,101356.59
2022-07-28T22:17:41.854Z,101362.44
2022-07-28T22:20:10.933Z,101363.81
2022-07-28T22:22:38.460Z,101364.53
2022-07-28T22:25:06.566Z,101368.03
2022-07-28T22:27:33.555Z,101366.75
2022-07-28T22:30:00.698Z,101368.47
2022-07-28T22:32:29.325Z,101374.28
2022-07-28T22:34:58.429Z,101379.63
2022-07-28T22:37:25.733Z,101381.47
2022-07-28T22:39:52.894Z,101381.47
2022-07-28T22:42:20.510Z,101390.59
2022-07-28T22:44:47.484Z,101387.03
2022-07-28T22:47:14.805Z,101389.72
2022-07-28T22:49:41.806Z,101391.91
2022-07-28T22:52:08.845Z,101391.78
2022-07-28T22:54:40.831Z,101389.34
2022-07-28T22:57:07.919Z,101390.34
2022-07-28T22:59:38.698Z,101393.38
2022-07-28T23:02:07.401Z,101396.88
2022-07-28T23:04:34.449Z,101412.72
2022-07-28T23:07:01.608Z,101400.22
2022-07-28T23:09:28.925Z,101404.25
2022-07-28T23:11:56.349Z,101396.75
2022-07-28T23:14:23.940Z,101400.91
2022-07-28T23:16:51.349Z,101397.16
2022-07-28T23:19:18.533Z,101401.94
2022-07-28T23:21:45.588Z,101403.78
2022-07-28T23:24:12.988Z,101397.72
2022-07-28T23:26:40.555Z,101399.22
2022-07-28T23:29:08.574Z,101396.28
2022-07-28T23:31:36.057Z,101400.09
2022-07-28T23:34:03.225Z,101392.03
2022-07-28T23:36:30.430Z,101389.56
2022-07-28T23:38:59.409Z,101392.25
2022-07-28T23:41:28.624Z,101392.44
2022-07-28T23:43:56.080Z,101399.00
2022-07-28T23:46:24.057Z,101394.59
2022-07-28T23:48:51.258Z,101396.44
2022-07-28T23:51:18.514Z,101396.28
2022-07-28T23:53:45.595Z,101399.56
2022-07-28T23:56:15.751Z,101403.22
2022-07-28T23:58:42.842Z,101394.66
